Time;durP1;ratioP1;P1;durP2;ratioP2;P2;SDS_P1;SDS_P2;PMS_P1;PMS_P2;Temp;Humidity;BMP_temperature;BMP_pressure;BME280_temperature;BME280_humidity;BME280_pressure;Samples;Min_cycle;Max_cycle;Signal;HPM_P1;HPM_P2
2021/09/24 19:26:52;;;;;;;20.80;11.35;;;;;;;12.37;59.34;93591.22;4981868;28;20061;-66
2021/09/24 19:29:17;;;;;;;15.98;10.30;;;;;;;11.94;58.60;93556.25;4984013;28;20418;-74
2021/09/24 19:31:43;;;;;;;17.55;12.50;;;;;;;12.26;58.98;93602.72;4973887;28;20031;-76
2021/09/24 19:34:08;;;;;;;31.20;16.38;;;;;;;12.13;59.44;93590.53;4981083;28;20034;-75
2021/09/24 19:36:34;;;;;;;23.60;14.85;;;;;;;11.86;60.74;93595.00;4980007;28;20034;-75
2021/09/24 19:38:59;;;;;;;22.17;13.90;;;;;;;12.07;60.27;93609.38;4982606;28;20465;-75
2021/09/24 19:41:25;;;;;;;21.55;13.18;;;;;;;12.08;59.86;93605.28;4979884;28;20469;-75
2021/09/24 19:43:51;;;;;;;21.45;13.63;;;;;;;12.00;60.29;93607.34;4982113;28;20347;-75
2021/09/24 19:48:53;;;;;;;19.58;12.00;;;;;;;12.09;60.66;93611.56;1474623;26;20545;-67
2021/09/24 19:51:19;;;;;;;21.58;13.27;;;;;;;12.09;60.24;93609.53;5001366;28;20400;-67
2021/09/24 19:53:46;;;;;;;18.73;11.35;;;;;;;12.10;60.47;93607.53;5011280;28;20030;-65
2021/09/24 19:59:34;;;;;;;25.27;16.20;;;;;;;11.99;60.21;93610.66;5004722;28;20598;-66
2021/09/24 20:01:59;;;;;;;26.08;15.82;;;;;;;11.86;61.56;93616.38;4999847;28;20382;-66
2021/09/24 20:04:25;;;;;;;37.92;22.27;;;;;;;11.91;61.11;93618.22;4981294;28;20033;-66
2021/09/24 20:06:52;;;;;;;48.83;28.48;;;;;;;11.87;60.73;93613.06;4999504;28;20080;-66
2021/09/24 20:09:18;;;;;;;42.38;24.70;;;;;;;11.77;61.88;93623.19;4995098;28;20041;-67
2021/09/24 20:11:44;;;;;;;40.90;24.10;;;;;;;11.70;61.61;93612.13;4999049;28;20033;-67
2021/09/24 20:14:09;;;;;;;34.10;18.15;;;;;;;11.62;62.21;93622.41;4999748;28;20525;-66
2021/09/24 20:16:35;;;;;;;18.25;11.40;;;;;;;11.46;62.26;93626.47;4999700;28;20032;-66
2021/09/24 20:19:00;;;;;;;19.80;12.93;;;;;;;11.44;62.63;93627.72;4998178;28;20026;-66
2021/09/24 20:21:26;;;;;;;16.95;12.50;;;;;;;11.54;62.50;93636.25;4998341;28;20030;-67
2021/09/24 20:23:52;;;;;;;24.27;14.75;;;;;;;11.47;63.54;93627.91;4997245;28;20419;-67
2021/09/24 20:26:18;;;;;;;25.70;15.40;;;;;;;11.46;62.95;93629.94;4997696;28;20550;-66
2021/09/24 20:28:44;;;;;;;22.67;15.60;;;;;;;11.46;63.15;93629.22;4981212;28;20101;-66
2021/09/24 20:31:10;;;;;;;25.58;16.30;;;;;;;11.36;63.45;93635.28;4999391;28;20038;-66
2021/09/24 20:33:36;;;;;;;24.73;16.38;;;;;;;11.35;62.25;93641.34;4999112;28;20040;-67
2021/09/24 20:36:02;;;;;;;29.42;17.75;;;;;;;11.36;62.62;93642.84;4998026;28;20030;-67
2021/09/24 20:38:27;;;;;;;40.95;35.30;;;;;;;11.43;62.67;93642.84;4997904;28;20056;-66
2021/09/24 20:40:54;;;;;;;29.98;20.65;;;;;;;11.26;63.45;93641.88;4989823;28;20503;-67
2021/09/24 20:43:20;;;;;;;26.42;18.27;;;;;;;11.04;63.88;93648.81;4989771;28;20033;-66
2021/09/24 20:45:45;;;;;;;26.08;17.92;;;;;;;11.17;63.67;93648.69;4989647;28;20038;-66
2021/09/24 20:48:11;;;;;;;28.20;19.35;;;;;;;11.19;63.45;93656.41;4989786;28;20154;-66
2021/09/24 20:50:36;;;;;;;27.30;17.58;;;;;;;11.08;64.14;93651.22;4988908;28;20137;-67
2021/09/24 20:53:02;;;;;;;27.42;17.55;;;;;;;11.06;63.57;93649.00;4989739;28;20050;-67
2021/09/24 20:55:28;;;;;;;24.67;17.23;;;;;;;11.10;63.81;93651.41;4989290;28;20030;-68
2021/09/24 20:57:55;;;;;;;27.40;18.40;;;;;;;11.02;64.61;93661.69;4988940;28;20065;-67
2021/09/24 21:00:22;;;;;;;21.95;14.90;;;;;;;10.92;63.65;93638.63;4989524;28;20033;-67
2021/09/24 21:02:47;;;;;;;20.30;14.32;;;;;;;10.86;64.90;93651.84;4989530;28;20061;-67
2021/09/24 21:05:13;;;;;;;20.50;14.23;;;;;;;10.62;65.39;93673.09;4989080;28;20069;-67
2021/09/24 21:07:39;;;;;;;20.48;13.15;;;;;;;10.53;65.88;93654.28;4989478;28;20116;-66
2021/09/24 21:10:07;;;;;;;12.45;9.25;;;;;;;10.53;65.22;93665.31;4988951;28;20543;-64
2021/09/24 21:12:33;;;;;;;11.35;8.98;;;;;;;10.60;64.51;93664.63;4987882;28;20037;-64
2021/09/24 21:14:58;;;;;;;29.05;11.68;;;;;;;10.60;65.17;93661.88;4989167;28;20490;-64
2021/09/24 21:17:24;;;;;;;14.38;10.63;;;;;;;10.56;65.92;93664.25;4988788;28;20057;-65
2021/09/24 21:19:49;;;;;;;15.00;10.40;;;;;;;10.42;65.00;93646.28;4989088;28;20053;-66
2021/09/24 21:22:15;;;;;;;16.70;12.77;;;;;;;10.48;65.05;93668.25;4988682;28;20029;-66
2021/09/24 21:24:41;;;;;;;15.85;11.40;;;;;;;10.49;66.09;93675.22;5007242;28;20125;-65
2021/09/24 21:27:08;;;;;;;13.02;9.52;;;;;;;10.44;65.25;93681.63;5008513;28;20164;-65
2021/09/24 21:29:34;;;;;;;19.00;12.52;;;;;;;10.36;65.20;93684.34;5008623;28;20136;-66
2021/09/24 21:32:00;;;;;;;17.85;12.45;;;;;;;10.31;65.31;93674.19;5008533;28;20057;-66
2021/09/24 21:34:25;;;;;;;17.27;12.60;;;;;;;10.30;65.33;93677.50;5008153;28;20876;-65
2021/09/24 21:36:50;;;;;;;16.05;11.43;;;;;;;10.38;65.31;93681.78;5008278;28;20030;-66
2021/09/24 21:39:16;;;;;;;16.88;11.18;;;;;;;10.37;64.94;93677.53;5008032;28;20112;-66
2021/09/24 21:41:42;;;;;;;12.85;10.48;;;;;;;10.41;64.51;93686.22;5008142;28;20030;-65
2021/09/24 21:44:07;;;;;;;11.98;8.93;;;;;;;10.40;64.81;93679.22;5008409;28;20041;-65
2021/09/24 21:46:32;;;;;;;10.40;7.78;;;;;;;10.39;64.89;93680.50;5007928;28;20033;-66
2021/09/24 21:48:58;;;;;;;9.38;7.40;;;;;;;10.36;64.75;93678.81;5009699;28;20040;-66
2021/09/24 21:51:25;;;;;;;7.50;5.75;;;;;;;10.31;64.44;93687.97;5010572;28;20117;-65
2021/09/24 21:53:50;;;;;;;6.65;5.18;;;;;;;10.29;64.89;93678.75;5010438;28;20113;-65
2021/09/24 21:56:16;;;;;;;8.68;6.88;;;;;;;10.11;65.38;93686.00;5010408;28;20110;-65
2021/09/24 21:58:42;;;;;;;14.05;7.05;;;;;;;10.19;64.94;93689.56;5010588;28;20112;-65
2021/09/24 22:01:11;;;;;;;7.60;6.18;;;;;;;10.02;64.80;93694.72;5010728;28;20426;-65
2021/09/24 22:03:37;;;;;;;8.07;6.70;;;;;;;9.56;66.46;93688.06;5010641;28;20033;-65
2021/09/24 22:06:03;;;;;;;12.88;9.20;;;;;;;9.60;67.41;93699.47;5010543;28;20017;-65
2021/09/24 22:08:29;;;;;;;16.60;10.30;;;;;;;9.64;67.02;93697.13;5010442;28;20108;-65
2021/09/24 22:10:54;;;;;;;10.02;7.38;;;;;;;9.73;66.40;93698.69;5010116;28;20101;-66
2021/09/24 22:13:20;;;;;;;11.07;8.25;;;;;;;9.83;66.22;93691.44;5010501;28;20033;-65
2021/09/24 22:15:45;;;;;;;50.63;26.13;;;;;;;9.74;66.44;93700.19;5010174;28;20490;-65
2021/09/24 22:18:11;;;;;;;19.52;11.88;;;;;;;9.75;66.73;93701.63;5010199;28;20032;-66
2021/09/24 22:20:37;;;;;;;18.30;11.88;;;;;;;9.72;66.59;93706.22;5010269;28;20029;-65
2021/09/24 22:23:03;;;;;;;14.25;9.45;;;;;;;9.70;66.40;93705.28;5011518;28;20037;-66
2021/09/24 22:25:30;;;;;;;11.68;8.40;;;;;;;9.77;65.86;93705.34;5014039;28;20030;-66
2021/09/24 22:27:56;;;;;;;29.52;18.30;;;;;;;9.37;67.20;93697.78;5014029;28;20104;-66
2021/09/24 22:30:26;;;;;;;21.35;13.80;;;;;;;9.48;67.20;93709.28;5013911;28;20083;-65
2021/09/24 22:32:53;;;;;;;19.70;12.38;;;;;;;9.56;66.62;93695.56;5014278;28;20120;-65
2021/09/24 22:35:18;;;;;;;21.08;11.88;;;;;;;9.45;66.99;93704.84;5013912;28;20573;-65
2021/09/24 22:37:44;;;;;;;23.02;15.90;;;;;;;8.83;69.34;93698.41;5013416;28;20053;-65
2021/09/24 22:40:10;;;;;;;63.35;33.70;;;;;;;9.10;69.28;93705.34;5013802;28;20079;-66
2021/09/24 22:42:36;;;;;;;44.90;24.67;;;;;;;9.23;68.81;93702.56;5013916;28;20029;-66
2021/09/24 22:45:01;;;;;;;26.38;15.68;;;;;;;9.31;67.85;93705.41;5014124;28;20102;-65
2021/09/24 22:47:27;;;;;;;19.90;11.43;;;;;;;9.31;67.96;93706.16;5013935;28;20077;-66
2021/09/24 22:49:52;;;;;;;13.75;8.98;;;;;;;9.27;67.85;93711.25;5013491;28;20049;-66
2021/09/24 22:52:17;;;;;;;12.35;8.50;;;;;;;9.31;68.06;93713.69;5012300;28;20037;-66
2021/09/24 22:54:43;;;;;;;12.73;8.68;;;;;;;9.05;68.33;93712.47;5013684;28;20073;-65
2021/09/24 22:57:10;;;;;;;13.52;8.38;;;;;;;9.22;68.14;93714.13;5013824;28;20510;-65
2021/09/24 22:59:35;;;;;;;10.23;6.95;;;;;;;9.31;68.03;93728.22;5013821;28;20017;-64
2021/09/24 23:02:01;;;;;;;11.32;7.80;;;;;;;9.26;67.95;93723.56;5013484;28;20475;-64
2021/09/24 23:04:26;;;;;;;69.43;37.72;;;;;;;9.18;68.28;93719.97;5013806;28;20022;-65
2021/09/24 23:06:52;;;;;;;23.05;10.63;;;;;;;9.16;68.21;93725.25;5013402;28;20048;-64
2021/09/24 23:09:17;;;;;;;25.88;15.20;;;;;;;9.15;67.71;93724.53;5013480;28;20033;-65
2021/09/24 23:11:43;;;;;;;30.52;20.42;;;;;;;9.08;67.69;93733.44;5013543;28;20022;-65
2021/09/24 23:14:08;;;;;;;37.25;23.63;;;;;;;9.09;67.54;93734.19;5013508;28;20505;-64
2021/09/24 23:16:34;;;;;;;43.03;28.67;;;;;;;8.98;67.33;93723.41;5013404;28;20422;-65
2021/09/24 23:18:59;;;;;;;28.35;18.55;;;;;;;8.79;67.31;93733.78;5013320;28;20408;-65
2021/09/24 23:21:25;;;;;;;45.03;28.85;;;;;;;8.71;67.95;93724.66;5013051;28;20123;-64
2021/09/24 23:23:50;;;;;;;20.88;14.10;;;;;;;8.79;68.20;93734.50;5012916;28;20026;-64
2021/09/24 23:26:16;;;;;;;37.50;24.90;;;;;;;8.77;68.48;93731.56;5012707;28;20451;-65
2021/09/24 23:28:42;;;;;;;44.60;27.08;;;;;;;8.81;68.00;93736.75;5013294;28;20057;-64
2021/09/24 23:31:07;;;;;;;45.33;29.58;;;;;;;8.66;68.47;93731.78;5012798;28;20411;-65
2021/09/24 23:33:33;;;;;;;50.38;29.65;;;;;;;8.63;69.09;93730.09;5012847;28;20068;-64
2021/09/24 23:35:58;;;;;;;33.85;21.63;;;;;;;8.66;69.11;93726.28;4995127;28;20414;-65
2021/09/24 23:38:24;;;;;;;32.00;20.38;;;;;;;8.59;69.52;93734.41;5012980;28;20045;-65
2021/09/24 23:40:51;;;;;;;39.42;16.80;;;;;;;8.44;69.18;93717.69;5013029;28;20018;-65
2021/09/24 23:43:16;;;;;;;19.50;11.10;;;;;;;8.47;68.89;93725.63;5013000;28;20418;-65
2021/09/24 23:45:42;;;;;;;16.95;12.10;;;;;;;8.53;69.46;93734.53;5012738;28;20028;-65
2021/09/24 23:48:08;;;;;;;63.35;35.08;;;;;;;8.58;69.58;93741.19;5012634;28;20083;-65
2021/09/24 23:50:33;;;;;;;33.80;19.10;;;;;;;8.59;69.14;93737.91;5012330;28;20045;-65
2021/09/24 23:52:59;;;;;;;18.02;10.88;;;;;;;8.58;69.44;93730.19;5012534;28;20466;-65
2021/09/24 23:55:24;;;;;;;12.73;9.20;;;;;;;8.35;70.81;93727.84;5012779;28;20104;-66
2021/09/24 23:57:52;;;;;;;16.95;12.15;;;;;;;8.35;71.07;93724.34;5012452;28;20527;-65
